createdAt,value
2023-03-23T00:02:39.174Z,11.65
2023-03-23T00:06:42.681Z,11.76
2023-03-23T00:10:43.096Z,11.56
2023-03-23T00:14:44.900Z,11.70
2023-03-23T00:18:45.506Z,11.47
2023-03-23T00:22:48.825Z,11.41
2023-03-23T00:26:52.661Z,11.39
2023-03-23T00:30:57.943Z,11.45
2023-03-23T00:35:00.297Z,11.33
2023-03-23T00:39:03.784Z,11.36
2023-03-23T00:43:05.028Z,11.19
2023-03-23T00:47:10.124Z,10.96
2023-03-23T00:51:13.760Z,10.59
2023-03-23T00:55:17.319Z,10.61
2023-03-23T00:59:18.560Z,10.50
2023-03-23T01:03:19.501Z,10.58
2023-03-23T01:07:20.119Z,10.66
2023-03-23T01:11:23.497Z,10.93
2023-03-23T01:15:25.920Z,10.96
2023-03-23T01:19:26.809Z,11.05
2023-03-23T01:23:28.644Z,11.05
2023-03-23T01:27:31.752Z,11.04
2023-03-23T01:31:32.854Z,11.06
2023-03-23T01:35:33.793Z,11.10
2023-03-23T01:39:34.215Z,11.15
2023-03-23T01:43:37.751Z,11.11
2023-03-23T01:47:38.515Z,11.04
2023-03-23T01:51:45.016Z,11.11
2023-03-23T01:55:51.516Z,11.20
2023-03-23T01:59:59.339Z,11.11
2023-03-23T02:04:02.533Z,11.28
2023-03-23T02:08:09.726Z,11.36
2023-03-23T02:12:11.667Z,11.25
2023-03-23T02:16:29.457Z,11.31
2023-03-23T02:20:56.870Z,11.36
2023-03-23T02:25:15.670Z,11.84
2023-03-23T02:30:02.424Z,12.07
2023-03-23T02:34:18.545Z,12.28
2023-03-23T02:38:26.115Z,12.27
2023-03-23T02:42:33.911Z,12.42
2023-03-23T02:46:36.175Z,12.68
2023-03-23T02:50:42.215Z,12.96
2023-03-23T02:54:45.612Z,13.24
2023-03-23T02:58:46.703Z,13.33
2023-03-23T03:02:54.733Z,13.35
2023-03-23T03:07:26.008Z,13.31
2023-03-23T03:11:27.201Z,13.26
2023-03-23T03:15:37.933Z,13.39
2023-03-23T03:19:43.109Z,13.53
2023-03-23T03:23:52.395Z,13.60
2023-03-23T03:27:54.299Z,13.61
2023-03-23T03:32:10.737Z,13.62
2023-03-23T03:36:20.023Z,13.70
2023-03-23T03:40:26.442Z,13.64
2023-03-23T03:44:27.509Z,13.90
2023-03-23T03:48:30.008Z,13.87
2023-03-23T03:52:31.568Z,14.11
2023-03-23T03:56:41.787Z,13.93
2023-03-23T04:01:05.060Z,13.88
2023-03-23T04:05:11.664Z,13.72
2023-03-23T04:09:14.502Z,13.94
2023-03-23T04:13:18.833Z,13.76
2023-03-23T04:17:42.179Z,13.69
2023-03-23T04:21:43.234Z,13.68
2023-03-23T04:25:44.682Z,13.80
2023-03-23T04:29:50.966Z,13.96
2023-03-23T04:34:11.004Z,13.98
2023-03-23T04:38:21.581Z,14.00
2023-03-23T04:42:27.580Z,13.96
2023-03-23T04:46:50.834Z,13.89
2023-03-23T04:50:55.788Z,14.02
2023-03-23T04:55:02.839Z,13.99
2023-03-23T04:59:04.354Z,14.11
2023-03-23T05:03:11.686Z,14.17
2023-03-23T05:07:14.303Z,14.19
2023-03-23T05:11:18.540Z,14.18
2023-03-23T05:15:21.128Z,14.31
2023-03-23T05:19:24.656Z,14.23
2023-03-23T05:23:32.408Z,14.34
2023-03-23T05:27:43.673Z,14.28
2023-03-23T05:31:56.996Z,14.12
2023-03-23T05:36:00.394Z,14.31
2023-03-23T05:40:07.184Z,14.28
2023-03-23T05:44:21.217Z,14.21
2023-03-23T05:48:25.997Z,14.38
2023-03-23T05:52:29.750Z,14.49
2023-03-23T05:56:31.722Z,14.75
2023-03-23T06:00:43.935Z,15.01
2023-03-23T06:04:58.505Z,15.05
2023-03-23T06:09:07.277Z,15.24
2023-03-23T06:13:21.103Z,15.21
2023-03-23T06:17:23.993Z,15.36
2023-03-23T06:21:28.260Z,15.34
2023-03-23T06:25:37.130Z,15.56
2023-03-23T06:29:38.168Z,15.67
2023-03-23T06:33:40.749Z,15.80
2023-03-23T06:38:02.585Z,15.78
2023-03-23T06:42:16.820Z,15.91
2023-03-23T06:46:23.060Z,15.92
2023-03-23T06:50:27.608Z,15.89
2023-03-23T06:54:28.443Z,16.05
2023-03-23T06:58:33.872Z,16.39
2023-03-23T07:02:34.556Z,16.72
2023-03-23T07:06:35.453Z,16.90
2023-03-23T07:10:36.513Z,17.05
2023-03-23T07:14:43.106Z,16.90
2023-03-23T07:18:43.920Z,17.05
2023-03-23T07:22:45.054Z,17.18
2023-03-23T07:26:58.682Z,17.40
2023-03-23T07:31:03.340Z,17.74
2023-03-23T07:35:08.549Z,17.77
2023-03-23T07:39:32.823Z,17.76
2023-03-23T07:43:34.982Z,17.99
2023-03-23T07:47:47.519Z,18.27
2023-03-23T07:51:48.892Z,18.36
2023-03-23T07:55:51.889Z,18.41
2023-03-23T08:00:20.476Z,18.61
2023-03-23T08:04:25.941Z,18.53
2023-03-23T08:08:46.891Z,18.38
2023-03-23T08:13:25.965Z,18.36
2023-03-23T08:18:03.714Z,18.46
2023-03-23T08:22:52.825Z,18.19
2023-03-23T08:27:12.233Z,18.92
2023-03-23T08:31:15.960Z,19.48
2023-03-23T08:35:28.076Z,19.02
2023-03-23T08:40:01.039Z,19.01
2023-03-23T08:44:10.724Z,18.76
2023-03-23T08:48:34.721Z,18.91
2023-03-23T08:52:54.855Z,18.66
2023-03-23T08:57:10.309Z,18.14
2023-03-23T09:01:49.885Z,17.97
2023-03-23T09:05:57.083Z,17.83
2023-03-23T09:09:58.190Z,17.76
2023-03-23T09:14:01.181Z,17.87
2023-03-23T09:18:02.487Z,17.56
2023-03-23T09:22:03.236Z,17.52
2023-03-23T09:26:07.580Z,17.51
2023-03-23T09:30:16.264Z,17.83
2023-03-23T09:34:18.159Z,18.00
2023-03-23T09:38:18.622Z,17.86
2023-03-23T09:42:44.692Z,17.99
2023-03-23T09:47:03.197Z,17.93
2023-03-23T09:51:15.609Z,18.23
2023-03-23T09:55:20.933Z,18.32
2023-03-23T09:59:29.206Z,18.66
2023-03-23T10:03:38.913Z,18.92
2023-03-23T10:07:39.863Z,19.02
2023-03-23T10:12:00.858Z,18.74
2023-03-23T10:16:02.747Z,18.73
2023-03-23T10:20:25.393Z,18.87
2023-03-23T10:24:38.512Z,18.68
2023-03-23T10:28:44.192Z,18.63
2023-03-23T10:32:53.349Z,19.36
2023-03-23T10:37:07.585Z,19.61
2023-03-23T10:41:17.248Z,19.63
2023-03-23T10:45:26.784Z,19.70
2023-03-23T10:49:32.548Z,20.00
2023-03-23T10:53:40.911Z,19.69
2023-03-23T10:57:46.206Z,20.02
2023-03-23T11:01:57.616Z,19.88
2023-03-23T11:06:05.623Z,20.09
2023-03-23T11:10:27.375Z,20.03
2023-03-23T11:14:36.745Z,19.89
2023-03-23T11:18:42.366Z,20.19
2023-03-23T11:22:43.971Z,20.55
2023-03-23T11:26:58.700Z,20.16
2023-03-23T11:31:02.985Z,19.77
2023-03-23T11:35:16.144Z,19.87
2023-03-23T11:39:27.439Z,20.08
2023-03-23T11:43:31.644Z,19.97
2023-03-23T11:47:41.051Z,19.49
2023-03-23T11:51:51.290Z,19.65
2023-03-23T11:56:20.523Z,19.22
2023-03-23T12:00:28.243Z,19.35
2023-03-23T12:05:06.767Z,19.55
2023-03-23T12:09:23.343Z,19.20
2023-03-23T12:13:58.653Z,18.88
2023-03-23T12:18:16.943Z,18.40
2023-03-23T12:22:40.192Z,18.06
2023-03-23T12:26:50.609Z,17.78
2023-03-23T12:31:02.402Z,18.47
2023-03-23T12:35:26.830Z,18.78
2023-03-23T12:40:26.776Z,19.26
2023-03-23T12:44:40.037Z,19.13
2023-03-23T12:48:45.969Z,19.63
2023-03-23T12:52:59.269Z,19.21
2023-03-23T12:57:07.352Z,18.75
2023-03-23T13:01:19.877Z,19.12
2023-03-23T13:05:42.704Z,19.32
2023-03-23T13:10:08.797Z,19.71
2023-03-23T13:14:29.269Z,19.97
2023-03-23T13:18:44.596Z,19.52
2023-03-23T13:22:53.341Z,19.16
2023-03-23T13:26:59.149Z,18.99
2023-03-23T13:31:03.733Z,18.91
2023-03-23T13:35:08.161Z,18.44
2023-03-23T13:39:21.821Z,18.60
2023-03-23T13:43:35.564Z,18.46
2023-03-23T13:47:43.187Z,18.90
2023-03-23T13:52:03.006Z,19.29
2023-03-23T13:56:21.991Z,19.76
2023-03-23T14:00:53.071Z,18.91
2023-03-23T14:04:56.514Z,18.73
2023-03-23T14:09:01.319Z,18.61
2023-03-23T14:13:06.069Z,18.85
2023-03-23T14:17:19.710Z,19.20
2023-03-23T14:21:34.335Z,19.76
2023-03-23T14:25:35.943Z,19.81
2023-03-23T14:29:36.543Z,19.13
2023-03-23T14:33:43.959Z,19.42
2023-03-23T14:37:45.362Z,19.43
2023-03-23T14:41:47.726Z,19.48
2023-03-23T14:45:57.170Z,19.64
2023-03-23T14:50:05.448Z,19.66
2023-03-23T14:54:06.212Z,19.86
2023-03-23T14:58:14.351Z,19.56
2023-03-23T15:02:26.268Z,19.71
2023-03-23T15:06:38.481Z,19.49
2023-03-23T15:10:41.887Z,19.54
2023-03-23T15:14:52.176Z,19.72
2023-03-23T15:18:58.970Z,19.42
2023-03-23T15:23:10.813Z,19.11
2023-03-23T15:27:21.636Z,19.04
2023-03-23T15:31:28.610Z,19.02
2023-03-23T15:35:29.782Z,18.85
2023-03-23T15:39:34.811Z,18.97
2023-03-23T15:43:38.029Z,18.86
2023-03-23T15:47:47.779Z,18.54
2023-03-23T15:51:49.448Z,18.62
2023-03-23T15:55:54.056Z,18.52
2023-03-23T15:59:56.469Z,18.56
2023-03-23T16:04:05.394Z,18.47
2023-03-23T16:08:08.601Z,18.44
2023-03-23T16:12:17.749Z,18.41
2023-03-23T16:16:23.042Z,18.68
2023-03-23T16:20:26.892Z,18.63
2023-03-23T16:24:27.492Z,18.74
2023-03-23T16:28:30.935Z,18.91
2023-03-23T16:32:31.878Z,18.72
2023-03-23T16:36:32.593Z,18.78
2023-03-23T16:40:33.504Z,18.92
2023-03-23T16:44:36.505Z,18.87
2023-03-23T16:48:40.861Z,18.76
2023-03-23T16:52:46.413Z,18.83
2023-03-23T16:56:49.291Z,18.45
2023-03-23T17:00:57.402Z,18.40
2023-03-23T17:04:58.315Z,18.39
2023-03-23T17:08:59.073Z,18.50
2023-03-23T17:13:02.352Z,18.48
2023-03-23T17:17:06.298Z,18.42
2023-03-23T17:21:07.965Z,18.28
2023-03-23T17:25:11.655Z,18.13
2023-03-23T17:29:12.947Z,17.96
2023-03-23T17:33:17.009Z,17.98
2023-03-23T17:37:19.158Z,17.86
2023-03-23T17:41:21.766Z,17.76
2023-03-23T17:45:25.625Z,17.70
2023-03-23T17:49:30.578Z,17.62
2023-03-23T17:53:33.988Z,17.43
2023-03-23T17:57:36.384Z,17.52
2023-03-23T18:01:42.543Z,17.45
2023-03-23T18:05:47.799Z,17.44
2023-03-23T18:09:50.202Z,17.57
2023-03-23T18:13:53.226Z,17.52
2023-03-23T18:17:57.621Z,17.58
2023-03-23T18:22:04.212Z,17.46
2023-03-23T18:26:08.513Z,17.44
2023-03-23T18:30:14.760Z,17.39
2023-03-23T18:34:17.709Z,17.34
2023-03-23T18:38:24.603Z,17.36
2023-03-23T18:42:27.692Z,17.24
2023-03-23T18:46:31.285Z,17.07
2023-03-23T18:50:34.712Z,16.92
2023-03-23T18:54:40.975Z,16.79
2023-03-23T18:58:44.968Z,16.73
2023-03-23T19:02:51.851Z,16.69
2023-03-23T19:06:56.436Z,16.50
2023-03-23T19:11:09.061Z,16.49
2023-03-23T19:15:13.282Z,16.44
2023-03-23T19:19:16.611Z,16.43
2023-03-23T19:23:18.573Z,16.38
2023-03-23T19:27:24.152Z,16.23
2023-03-23T19:31:27.339Z,16.25
2023-03-23T19:35:30.110Z,16.13
2023-03-23T19:39:33.794Z,15.99
2023-03-23T19:43:40.020Z,15.92
2023-03-23T19:47:43.336Z,15.89
2023-03-23T19:51:47.385Z,15.82
2023-03-23T19:55:50.581Z,15.76
2023-03-23T19:59:58.361Z,15.64
2023-03-23T20:04:07.171Z,15.59
2023-03-23T20:08:12.150Z,15.95
2023-03-23T20:12:15.121Z,15.93
2023-03-23T20:16:21.860Z,15.71
2023-03-23T20:20:25.424Z,15.62
2023-03-23T20:24:27.710Z,15.45
2023-03-23T20:28:30.648Z,15.34
2023-03-23T20:32:40.980Z,15.30
2023-03-23T20:36:46.630Z,15.22
2023-03-23T20:40:51.308Z,15.29
2023-03-23T20:44:55.845Z,15.24
2023-03-23T20:49:01.462Z,15.30
2023-03-23T20:53:05.391Z,15.27
2023-03-23T20:57:12.832Z,15.40
2023-03-23T21:01:22.073Z,15.30
2023-03-23T21:05:27.503Z,15.34
2023-03-23T21:09:31.504Z,15.46
2023-03-23T21:13:34.943Z,15.42
2023-03-23T21:17:39.567Z,15.70
2023-03-23T21:21:55.604Z,15.78
2023-03-23T21:26:04.487Z,15.86
2023-03-23T21:30:08.093Z,15.84
2023-03-23T21:34:10.178Z,15.76
2023-03-23T21:38:15.831Z,15.64
2023-03-23T21:42:18.930Z,15.63
2023-03-23T21:46:22.033Z,15.59
2023-03-23T21:50:24.821Z,15.57
2023-03-23T21:54:30.892Z,15.45
2023-03-23T21:58:33.214Z,15.44
2023-03-23T22:02:34.990Z,15.24
2023-03-23T22:06:36.217Z,15.44
2023-03-23T22:10:43.658Z,15.34
2023-03-23T22:15:02.048Z,15.17
2023-03-23T22:19:03.503Z,15.12
2023-03-23T22:23:04.097Z,15.14
2023-03-23T22:27:10.267Z,15.19
2023-03-23T22:31:17.708Z,15.20
2023-03-23T22:35:18.314Z,15.07
2023-03-23T22:39:19.238Z,15.04
2023-03-23T22:43:22.437Z,15.11
2023-03-23T22:47:23.421Z,15.10
2023-03-23T22:51:25.756Z,15.01
2023-03-23T22:55:27.294Z,14.90
2023-03-23T22:59:32.071Z,14.94
2023-03-23T23:03:35.189Z,14.90
2023-03-23T23:07:37.257Z,14.61
2023-03-23T23:11:40.153Z,14.63
2023-03-23T23:15:48.173Z,14.52
2023-03-23T23:19:52.192Z,14.57
2023-03-23T23:23:53.386Z,14.72
2023-03-23T23:27:53.735Z,14.72
2023-03-23T23:31:57.262Z,14.78
2023-03-23T23:35:58.490Z,14.67
2023-03-23T23:39:59.474Z,14.55
2023-03-23T23:44:00.087Z,14.51
2023-03-23T23:48:03.814Z,14.53
2023-03-23T23:52:04.915Z,14.62
2023-03-23T23:56:07.287Z,14.67
